createdAt,value
2022-09-22T00:02:08.721Z,8.63
2022-09-22T00:04:35.815Z,12.70
2022-09-22T00:07:02.911Z,10.20
2022-09-22T00:09:31.329Z,9.10
2022-09-22T00:11:58.476Z,7.90
2022-09-22T00:14:26.553Z,8.73
2022-09-22T00:16:54.608Z,6.10
2022-09-22T00:19:22.974Z,7.47
2022-09-22T00:21:50.577Z,7.67
2022-09-22T00:24:18.324Z,7.93
2022-09-22T00:26:46.799Z,10.83
2022-09-22T00:29:13.881Z,7.33
2022-09-22T00:31:42.078Z,7.00
2022-09-22T00:34:09.606Z,8.50
2022-09-22T00:36:36.719Z,6.60
2022-09-22T00:39:04.034Z,10.37
2022-09-22T00:41:33.535Z,11.73
2022-09-22T00:44:19.316Z,15.10
2022-09-22T00:46:50.136Z,6.10
2022-09-22T00:49:17.905Z,11.43
2022-09-22T00:51:45.146Z,12.17
2022-09-22T00:54:13.800Z,12.00
2022-09-22T00:56:43.913Z,8.10
2022-09-22T00:59:14.197Z,11.37
2022-09-22T01:01:41.417Z,8.17
2022-09-22T01:04:09.915Z,11.50
2022-09-22T01:06:37.873Z,13.90
2022-09-22T01:09:05.249Z,17.20
2022-09-22T01:11:33.033Z,11.00
2022-09-22T01:14:04.569Z,10.57
2022-09-22T01:16:40.312Z,8.40
2022-09-22T01:19:16.689Z,10.57
2022-09-22T01:21:48.024Z,9.03
2022-09-22T01:24:33.686Z,10.50
2022-09-22T01:27:12.368Z,12.47
2022-09-22T01:30:09.642Z,13.60
2022-09-22T01:32:42.336Z,9.27
2022-09-22T01:35:15.622Z,8.77
2022-09-22T01:37:44.915Z,10.60
2022-09-22T01:40:15.913Z,8.27
2022-09-22T01:42:45.661Z,11.53
2022-09-22T01:45:15.431Z,9.27
2022-09-22T01:47:45.988Z,5.97
2022-09-22T01:50:16.144Z,7.37
2022-09-22T01:52:44.196Z,7.20
2022-09-22T01:55:13.192Z,7.03
2022-09-22T01:57:43.650Z,11.50
2022-09-22T02:00:11.282Z,6.40
2022-09-22T02:02:43.585Z,9.97
2022-09-22T02:05:14.492Z,6.20
2022-09-22T02:07:44.140Z,8.87
2022-09-22T02:10:13.332Z,9.17
2022-09-22T02:12:40.550Z,8.63
2022-09-22T02:15:08.665Z,11.43
2022-09-22T02:17:35.973Z,10.63
2022-09-22T02:20:05.334Z,8.10
2022-09-22T02:22:33.792Z,11.93
2022-09-22T02:25:00.916Z,7.80
2022-09-22T02:27:30.906Z,8.53
2022-09-22T02:29:59.451Z,9.90
2022-09-22T02:32:26.750Z,8.23
2022-09-22T02:34:54.221Z,3.80
2022-09-22T02:37:23.620Z,4.40
2022-09-22T02:39:57.254Z,13.40
2022-09-22T02:42:27.456Z,14.70
2022-09-22T02:44:57.027Z,5.10
2022-09-22T02:47:27.532Z,7.23
2022-09-22T02:49:55.067Z,5.53
2022-09-22T02:52:23.861Z,5.27
2022-09-22T02:54:51.236Z,6.80
2022-09-22T02:57:19.684Z,10.07
2022-09-22T02:59:46.816Z,12.30
2022-09-22T03:02:13.902Z,6.07
2022-09-22T03:04:41.064Z,5.60
2022-09-22T03:07:08.200Z,7.43
2022-09-22T03:09:35.321Z,4.27
2022-09-22T03:12:02.902Z,6.03
2022-09-22T03:14:31.352Z,9.00
2022-09-22T03:16:58.477Z,6.33
2022-09-22T03:19:25.584Z,7.27
2022-09-22T03:21:52.706Z,3.60
2022-09-22T03:24:19.784Z,5.13
2022-09-22T03:26:46.938Z,5.97
2022-09-22T03:29:14.061Z,8.67
2022-09-22T03:31:42.505Z,6.07
2022-09-22T03:34:09.622Z,6.17
2022-09-22T03:36:36.789Z,11.03
2022-09-22T03:39:04.015Z,5.00
2022-09-22T03:41:31.137Z,5.07
2022-09-22T03:43:58.201Z,8.00
2022-09-22T03:46:25.452Z,9.17
2022-09-22T03:48:53.979Z,6.90
2022-09-22T03:51:21.113Z,9.43
2022-09-22T03:53:48.220Z,8.93
2022-09-22T03:56:16.200Z,9.53
2022-09-22T03:58:43.926Z,5.60
2022-09-22T04:01:11.323Z,6.90
2022-09-22T04:03:38.776Z,7.13
2022-09-22T04:06:07.527Z,5.57
2022-09-22T04:08:34.933Z,7.30
2022-09-22T04:11:02.025Z,7.90
2022-09-22T04:13:29.241Z,7.30
2022-09-22T04:15:56.423Z,7.17
2022-09-22T04:18:23.540Z,11.53
2022-09-22T04:20:50.616Z,7.90
2022-09-22T04:23:19.069Z,11.43
2022-09-22T04:25:46.130Z,7.00
2022-09-22T04:28:13.260Z,5.23
2022-09-22T04:30:40.444Z,7.57
2022-09-22T04:33:07.528Z,8.80
2022-09-22T04:35:34.656Z,6.83
2022-09-22T04:38:01.719Z,12.57
2022-09-22T04:40:30.235Z,9.53
2022-09-22T04:42:57.639Z,11.90
2022-09-22T04:45:24.805Z,11.10
2022-09-22T04:47:52.403Z,6.30
2022-09-22T04:50:20.439Z,11.20
2022-09-22T04:52:48.206Z,7.73
2022-09-22T04:55:15.414Z,5.80
2022-09-22T04:57:47.474Z,7.50
2022-09-22T05:00:14.679Z,7.33
2022-09-22T05:02:41.791Z,6.90
2022-09-22T05:05:09.308Z,9.07
2022-09-22T05:07:36.430Z,15.40
2022-09-22T05:10:03.612Z,9.30
2022-09-22T05:12:30.732Z,6.87
2022-09-22T05:14:59.140Z,7.73
2022-09-22T05:17:26.283Z,7.97
2022-09-22T05:19:53.390Z,9.33
2022-09-22T05:22:20.546Z,10.47
2022-09-22T05:24:47.640Z,12.03
2022-09-22T05:27:14.776Z,7.67
2022-09-22T05:29:41.872Z,7.03
2022-09-22T05:32:10.371Z,8.73
2022-09-22T05:34:37.513Z,7.30
2022-09-22T05:37:04.694Z,6.53
2022-09-22T05:39:31.786Z,12.20
2022-09-22T05:41:58.905Z,7.87
2022-09-22T05:44:26.152Z,10.33
2022-09-22T05:46:53.225Z,9.60
2022-09-22T05:49:21.710Z,6.23
2022-09-22T05:51:48.843Z,10.77
2022-09-22T05:54:19.046Z,9.20
2022-09-22T05:56:49.724Z,7.67
2022-09-22T05:59:16.826Z,11.17
2022-09-22T06:01:44.091Z,10.70
2022-09-22T06:04:11.220Z,11.23
2022-09-22T06:06:39.634Z,8.87
2022-09-22T06:09:06.757Z,9.37
2022-09-22T06:11:33.873Z,8.87
2022-09-22T06:14:01.012Z,8.30
2022-09-22T06:16:28.177Z,7.07
2022-09-22T06:18:55.352Z,8.13
2022-09-22T06:21:22.423Z,6.20
2022-09-22T06:23:51.052Z,4.53
2022-09-22T06:26:18.120Z,7.70
2022-09-22T06:28:45.212Z,7.50
2022-09-22T06:31:12.310Z,4.73
2022-09-22T06:33:39.445Z,3.57
2022-09-22T06:36:07.113Z,7.00
2022-09-22T06:38:34.237Z,9.03
2022-09-22T06:41:02.672Z,7.03
2022-09-22T06:43:29.789Z,6.47
2022-09-22T06:45:59.653Z,5.43
2022-09-22T06:48:26.770Z,8.50
2022-09-22T06:50:54.302Z,5.43
2022-09-22T06:53:24.435Z,4.10
2022-09-22T06:55:54.292Z,6.73
2022-09-22T06:58:23.317Z,9.13
2022-09-22T07:00:50.567Z,6.20
2022-09-22T07:03:18.677Z,7.37
2022-09-22T07:05:52.280Z,5.70
2022-09-22T07:08:19.368Z,7.23
2022-09-22T07:10:46.484Z,7.70
2022-09-22T07:13:13.554Z,8.60
2022-09-22T07:15:42.006Z,4.40
2022-09-22T07:18:09.107Z,7.40
2022-09-22T07:20:36.207Z,11.63
2022-09-22T07:23:03.300Z,8.40
2022-09-22T07:25:30.461Z,6.90
2022-09-22T07:27:57.523Z,4.97
2022-09-22T07:30:24.906Z,6.93
2022-09-22T07:32:53.408Z,8.53
2022-09-22T07:35:20.541Z,7.30
2022-09-22T07:37:47.653Z,5.50
2022-09-22T07:40:14.845Z,6.00
2022-09-22T07:42:42.063Z,6.03
2022-09-22T07:45:10.386Z,4.97
2022-09-22T07:47:37.492Z,5.20
2022-09-22T07:50:06.379Z,8.13
2022-09-22T07:52:33.551Z,10.47
2022-09-22T07:55:00.666Z,7.93
2022-09-22T07:57:27.783Z,7.07
2022-09-22T07:59:54.886Z,4.93
2022-09-22T08:02:22.029Z,7.27
2022-09-22T08:04:49.205Z,7.47
2022-09-22T08:07:17.647Z,10.77
2022-09-22T08:09:44.740Z,5.00
2022-09-22T08:12:11.866Z,7.37
2022-09-22T08:14:38.978Z,4.30
2022-09-22T08:17:06.095Z,5.47
2022-09-22T08:19:33.210Z,9.23
2022-09-22T08:22:00.329Z,6.50
2022-09-22T08:24:28.846Z,7.43
2022-09-22T08:26:56.398Z,5.60
2022-09-22T08:29:23.607Z,7.30
2022-09-22T08:31:50.847Z,6.80
2022-09-22T08:34:18.212Z,5.23
2022-09-22T08:36:46.105Z,5.67
2022-09-22T08:39:13.402Z,7.40
2022-09-22T08:41:45.780Z,6.97
2022-09-22T08:44:17.989Z,3.73
2022-09-22T08:46:45.778Z,6.10
2022-09-22T08:49:16.300Z,10.07
2022-09-22T08:51:44.977Z,4.93
2022-09-22T08:54:12.133Z,7.47
2022-09-22T08:56:41.912Z,4.50
2022-09-22T08:59:11.859Z,3.60
2022-09-22T09:01:45.823Z,6.60
2022-09-22T09:04:37.051Z,4.07
2022-09-22T09:07:07.345Z,6.13
2022-09-22T09:09:40.399Z,5.53
2022-09-22T09:12:22.380Z,4.23
2022-09-22T09:14:58.015Z,5.63
2022-09-22T09:17:26.587Z,5.87
2022-09-22T09:19:56.040Z,5.73
2022-09-22T09:22:25.575Z,6.63
2022-09-22T09:27:44.280Z,4.38
2022-09-22T09:30:14.626Z,9.33
2022-09-22T09:32:43.515Z,3.27
2022-09-22T09:35:13.480Z,3.47
2022-09-22T09:37:40.851Z,5.40
2022-09-22T09:40:13.663Z,3.20
2022-09-22T09:42:40.812Z,2.45
2022-09-22T09:45:12.698Z,3.28
2022-09-22T09:47:48.702Z,3.75
2022-09-22T09:50:16.437Z,4.05
2022-09-22T09:52:43.530Z,3.72
2022-09-22T09:55:18.789Z,2.65
2022-09-22T09:58:00.964Z,2.67
2022-09-22T10:00:28.212Z,2.50
2022-09-22T10:03:04.249Z,3.05
2022-09-22T10:05:32.944Z,2.58
2022-09-22T10:08:01.884Z,3.55
2022-09-22T10:10:33.617Z,3.38
2022-09-22T10:13:19.397Z,3.55
2022-09-22T10:16:00.159Z,1.98
2022-09-22T10:18:32.978Z,2.13
2022-09-22T10:21:02.584Z,2.05
2022-09-22T10:23:29.953Z,4.80
2022-09-22T10:26:13.170Z,2.83
2022-09-22T10:28:40.257Z,1.85
2022-09-22T10:31:07.387Z,3.57
2022-09-22T10:33:37.599Z,2.83
2022-09-22T10:36:11.826Z,3.50
2022-09-22T10:41:13.329Z,3.83
2022-09-22T10:43:42.558Z,2.07
2022-09-22T10:46:17.150Z,2.27
2022-09-22T10:48:47.931Z,1.90
2022-09-22T10:51:18.982Z,2.83
2022-09-22T10:54:00.997Z,1.90
2022-09-22T10:56:32.762Z,1.90
2022-09-22T10:59:07.020Z,3.77
2022-09-22T11:01:41.014Z,5.40
2022-09-22T11:04:16.143Z,2.33
2022-09-22T11:06:49.407Z,2.10
2022-09-22T11:09:19.163Z,5.40
2022-09-22T11:11:50.106Z,2.37
2022-09-22T11:14:22.841Z,2.30
2022-09-22T11:17:01.863Z,1.93
2022-09-22T11:19:41.590Z,2.03
2022-09-22T11:22:17.678Z,2.90
2022-09-22T11:24:54.828Z,3.63
2022-09-22T11:27:25.817Z,2.10
2022-09-22T11:30:00.231Z,2.70
2022-09-22T11:32:42.244Z,4.47
2022-09-22T11:35:20.372Z,3.03
2022-09-22T11:37:53.073Z,2.03
2022-09-22T11:40:27.603Z,10.93
2022-09-22T11:43:00.675Z,1.67
2022-09-22T11:45:39.493Z,3.57
2022-09-22T11:48:10.685Z,2.03
2022-09-22T11:50:53.477Z,1.80
2022-09-22T11:53:47.578Z,2.17
2022-09-22T11:56:29.412Z,4.47
2022-09-22T11:58:58.229Z,2.20
2022-09-22T12:01:28.051Z,2.90
2022-09-22T12:03:58.873Z,2.90
2022-09-22T12:06:29.886Z,3.20
2022-09-22T12:08:59.164Z,1.73
2022-09-22T12:11:26.932Z,2.93
2022-09-22T12:13:54.614Z,2.13
2022-09-22T12:16:23.697Z,2.03
2022-09-22T12:18:53.899Z,3.70
2022-09-22T12:21:28.613Z,2.97
2022-09-22T12:24:00.389Z,2.40
2022-09-22T12:26:28.997Z,3.70
2022-09-22T12:28:56.494Z,2.67
2022-09-22T12:31:32.252Z,2.10
2022-09-22T12:33:59.413Z,2.90
2022-09-22T12:36:28.774Z,6.33
2022-09-22T12:39:08.400Z,1.50
2022-09-22T12:41:43.004Z,3.17
2022-09-22T12:44:14.332Z,1.87
2022-09-22T12:46:42.712Z,2.23
2022-09-22T12:49:10.288Z,2.53
2022-09-22T12:51:37.421Z,3.70
2022-09-22T12:54:22.935Z,2.30
2022-09-22T12:56:56.045Z,2.80
2022-09-22T12:59:42.158Z,1.60
2022-09-22T13:02:18.720Z,2.40
2022-09-22T13:05:00.742Z,1.60
2022-09-22T13:07:35.495Z,3.00
2022-09-22T13:10:21.318Z,3.63
2022-09-22T13:13:03.331Z,1.70
2022-09-22T13:15:32.013Z,2.13
2022-09-22T13:17:59.115Z,2.40
2022-09-22T13:20:30.972Z,3.23
2022-09-22T13:23:04.288Z,2.80
2022-09-22T13:25:31.406Z,1.70
2022-09-22T13:28:06.045Z,1.97
2022-09-22T13:30:34.875Z,2.60
2022-09-22T13:33:01.954Z,1.50
2022-09-22T13:35:30.721Z,2.20
2022-09-22T13:37:58.425Z,1.50
2022-09-22T13:40:27.660Z,1.90
2022-09-22T13:42:56.490Z,1.70
2022-09-22T13:45:24.775Z,2.20
2022-09-22T13:47:54.534Z,1.60
2022-09-22T13:50:23.013Z,2.33
2022-09-22T13:52:50.941Z,2.27
2022-09-22T13:55:19.631Z,1.40
2022-09-22T13:57:47.285Z,2.70
2022-09-22T14:00:20.138Z,4.13
2022-09-22T14:02:47.348Z,1.73
2022-09-22T14:05:19.375Z,3.07
2022-09-22T14:08:07.626Z,4.80
2022-09-22T14:10:34.143Z,9.80
2022-09-22T14:13:01.227Z,1.77
2022-09-22T14:15:39.620Z,3.00
2022-09-22T14:18:10.124Z,1.60
2022-09-22T14:20:40.642Z,1.60
2022-09-22T14:23:14.817Z,4.20
2022-09-22T14:25:41.960Z,1.93
2022-09-22T14:28:16.567Z,1.80
2022-09-22T14:30:43.701Z,2.17
2022-09-22T14:33:14.861Z,2.23
2022-09-22T14:35:43.346Z,2.63
2022-09-22T14:38:21.097Z,2.20
2022-09-22T14:40:52.267Z,3.37
2022-09-22T14:43:23.823Z,1.50
2022-09-22T14:45:57.941Z,1.63
2022-09-22T14:48:28.800Z,1.77
2022-09-22T14:50:57.830Z,2.03
2022-09-22T14:53:26.518Z,1.20
2022-09-22T14:55:54.507Z,2.20
2022-09-22T14:58:22.831Z,2.67
2022-09-22T15:00:51.265Z,1.50
2022-09-22T15:03:20.148Z,4.83
2022-09-22T15:05:47.315Z,1.23
2022-09-22T15:08:17.427Z,2.13
2022-09-22T15:10:51.903Z,2.60
2022-09-22T15:13:25.828Z,1.93
2022-09-22T15:15:53.262Z,3.07
2022-09-22T15:18:20.368Z,1.37
2022-09-22T15:20:49.158Z,2.97
2022-09-22T15:23:22.345Z,2.73
2022-09-22T15:25:50.002Z,2.30
2022-09-22T15:28:18.109Z,1.50
2022-09-22T15:30:45.695Z,2.13
2022-09-22T15:33:12.937Z,1.50
2022-09-22T15:35:40.117Z,1.20
2022-09-22T15:38:12.702Z,1.60
2022-09-22T15:40:41.336Z,2.03
2022-09-22T15:43:13.194Z,2.30
2022-09-22T15:45:42.409Z,1.60
2022-09-22T15:48:09.582Z,3.13
2022-09-22T15:50:36.682Z,2.33
2022-09-22T15:53:03.783Z,2.20
2022-09-22T15:55:30.882Z,1.77
2022-09-22T15:57:59.322Z,1.20
2022-09-22T16:00:26.438Z,2.60
2022-09-22T16:02:53.637Z,1.33
2022-09-22T16:05:20.797Z,1.80
2022-09-22T16:07:50.181Z,2.00
2022-09-22T16:10:19.396Z,1.37
2022-09-22T16:12:46.499Z,1.33
2022-09-22T16:15:14.980Z,2.27
2022-09-22T16:17:42.296Z,1.40
2022-09-22T16:20:10.375Z,1.30
2022-09-22T16:22:37.478Z,6.00
2022-09-22T16:25:05.310Z,3.50
2022-09-22T16:27:32.414Z,2.07
2022-09-22T16:29:59.782Z,2.93
2022-09-22T16:32:28.296Z,1.40
2022-09-22T16:34:55.366Z,1.20
2022-09-22T16:37:22.491Z,1.23
2022-09-22T16:39:49.610Z,1.50
2022-09-22T16:42:19.404Z,2.03
2022-09-22T16:44:50.002Z,1.40
2022-09-22T16:47:17.113Z,1.60
2022-09-22T16:49:45.557Z,1.23
2022-09-22T16:52:12.622Z,1.27
2022-09-22T16:54:39.730Z,2.30
2022-09-22T16:57:06.842Z,2.20
2022-09-22T16:59:33.922Z,2.90
2022-09-22T17:02:01.124Z,3.90
2022-09-22T17:04:28.281Z,2.87
2022-09-22T17:06:56.725Z,2.10
2022-09-22T17:09:23.835Z,2.40
2022-09-22T17:11:50.960Z,2.40
2022-09-22T17:14:18.867Z,2.90
2022-09-22T17:16:46.899Z,2.00
2022-09-22T17:19:15.391Z,1.57
2022-09-22T17:21:42.450Z,4.03
2022-09-22T17:24:10.876Z,1.63
2022-09-22T17:26:38.578Z,1.93
2022-09-22T17:29:05.871Z,3.03
2022-09-22T17:31:33.805Z,1.70
2022-09-22T17:34:00.916Z,1.43
2022-09-22T17:36:28.704Z,1.47
2022-09-22T17:38:56.497Z,1.30
2022-09-22T17:41:25.933Z,2.43
2022-09-22T17:43:53.602Z,1.80
2022-09-22T17:46:20.892Z,1.70
2022-09-22T17:48:48.053Z,1.90
2022-09-22T17:51:28.305Z,2.20
2022-09-22T17:53:55.416Z,1.83
2022-09-22T17:56:22.486Z,2.43
2022-09-22T17:58:50.912Z,2.83
2022-09-22T18:01:18.005Z,5.00
2022-09-22T18:03:45.111Z,2.73
2022-09-22T18:06:12.886Z,4.30
2022-09-22T18:08:39.967Z,4.40
2022-09-22T18:11:07.069Z,2.37
2022-09-22T18:13:37.298Z,3.00
2022-09-22T18:16:23.880Z,2.93
2022-09-22T18:18:50.986Z,4.30
2022-09-22T18:21:18.067Z,2.50
2022-09-22T18:23:45.158Z,3.20
2022-09-22T18:26:12.266Z,2.20
2022-09-22T18:28:39.392Z,3.90
2022-09-22T18:31:06.637Z,3.10
2022-09-22T18:33:35.182Z,3.83
2022-09-22T18:36:02.509Z,3.67
2022-09-22T18:38:29.592Z,6.23
2022-09-22T18:40:56.681Z,7.00
2022-09-22T18:43:23.843Z,3.40
2022-09-22T18:45:51.043Z,3.03
2022-09-22T18:48:18.146Z,4.10
2022-09-22T18:50:46.638Z,4.30
2022-09-22T18:53:13.698Z,2.70
2022-09-22T18:55:40.786Z,2.83
2022-09-22T18:58:07.869Z,6.90
2022-09-22T19:00:34.975Z,3.93
2022-09-22T19:03:02.136Z,3.43
2022-09-22T19:05:29.297Z,3.27
2022-09-22T19:07:57.708Z,8.40
2022-09-22T19:10:24.860Z,5.13
2022-09-22T19:12:51.971Z,4.93
2022-09-22T19:15:19.386Z,3.17
2022-09-22T19:17:47.644Z,3.47
2022-09-22T19:20:16.065Z,5.37
2022-09-22T19:22:43.554Z,5.20
2022-09-22T19:25:12.109Z,4.30
2022-09-22T19:27:39.251Z,4.57
2022-09-22T19:30:07.054Z,7.57
2022-09-22T19:32:34.263Z,4.50
2022-09-22T19:35:01.376Z,4.47
2022-09-22T19:37:28.526Z,5.57
2022-09-22T19:39:55.777Z,5.50
2022-09-22T19:42:24.592Z,6.33
2022-09-22T19:44:51.910Z,3.73
2022-09-22T19:47:19.037Z,4.00
2022-09-22T19:49:46.107Z,6.47
2022-09-22T19:52:13.208Z,4.57
2022-09-22T19:54:40.293Z,5.53
2022-09-22T19:57:07.388Z,2.93
2022-09-22T19:59:35.791Z,3.33
2022-09-22T20:02:02.903Z,5.47
2022-09-22T20:04:29.958Z,3.27
2022-09-22T20:06:57.059Z,4.07
2022-09-22T20:09:24.162Z,5.50
2022-09-22T20:11:51.249Z,4.30
2022-09-22T20:14:18.359Z,4.17
2022-09-22T20:16:47.128Z,4.30
2022-09-22T20:19:14.284Z,2.33
2022-09-22T20:21:42.337Z,7.33
2022-09-22T20:24:10.885Z,4.10
2022-09-22T20:26:38.020Z,4.70
2022-09-22T20:29:05.098Z,4.30
2022-09-22T20:31:32.189Z,3.53
2022-09-22T20:34:00.709Z,4.13
2022-09-22T20:36:27.974Z,5.20
2022-09-22T20:38:55.077Z,4.03
2022-09-22T20:41:23.160Z,3.27
2022-09-22T20:43:50.409Z,8.20
2022-09-22T20:46:17.671Z,6.63
2022-09-22T20:48:44.820Z,2.90
2022-09-22T20:51:13.368Z,8.40
2022-09-22T20:53:40.763Z,6.03
2022-09-22T20:56:08.713Z,6.60
2022-09-22T20:58:40.654Z,3.27
2022-09-22T21:01:07.861Z,5.43
2022-09-22T21:03:34.986Z,5.30
2022-09-22T21:06:02.847Z,4.97
2022-09-22T21:08:31.420Z,5.33
2022-09-22T21:10:58.519Z,8.10
2022-09-22T21:13:25.638Z,5.60
2022-09-22T21:15:58.158Z,5.77
2022-09-22T21:18:25.292Z,8.50
2022-09-22T21:20:52.451Z,5.77
2022-09-22T21:23:19.542Z,2.83
2022-09-22T21:25:56.750Z,3.47
2022-09-22T21:28:24.021Z,4.40
2022-09-22T21:30:57.638Z,4.80
2022-09-22T21:33:25.150Z,3.00
2022-09-22T21:36:00.343Z,5.33
2022-09-22T21:38:27.454Z,3.60
2022-09-22T21:40:58.409Z,4.60
2022-09-22T21:43:25.745Z,2.97
2022-09-22T21:46:00.105Z,3.20
2022-09-22T21:48:30.693Z,5.60
2022-09-22T21:50:58.509Z,5.97
2022-09-22T21:53:25.883Z,5.90
2022-09-22T21:56:01.202Z,4.43
2022-09-22T21:58:28.860Z,6.63
2022-09-22T22:00:56.315Z,8.70
2022-09-22T22:03:23.888Z,3.07
2022-09-22T22:05:50.999Z,7.93
2022-09-22T22:08:18.086Z,5.87
2022-09-22T22:10:45.168Z,7.60
2022-09-22T22:13:13.609Z,2.73
2022-09-22T22:15:40.774Z,7.17
2022-09-22T22:18:07.882Z,2.60
2022-09-22T22:20:34.995Z,6.07
2022-09-22T22:23:02.086Z,3.50
2022-09-22T22:25:29.169Z,3.50
2022-09-22T22:27:56.279Z,4.50
2022-09-22T22:30:24.755Z,4.77
2022-09-22T22:32:51.830Z,5.23
2022-09-22T22:35:18.918Z,3.53
2022-09-22T22:37:45.999Z,4.00
2022-09-22T22:40:13.116Z,3.80
2022-09-22T22:42:40.214Z,2.80
2022-09-22T22:45:07.654Z,2.40
2022-09-22T22:47:36.061Z,3.67
2022-09-22T22:50:03.154Z,2.93
2022-09-22T22:52:30.268Z,3.53
2022-09-22T22:54:57.359Z,2.93
2022-09-22T22:57:24.464Z,3.47
2022-09-22T22:59:51.529Z,3.13
2022-09-22T23:02:18.631Z,3.63
2022-09-22T23:04:47.058Z,3.43
2022-09-22T23:07:14.128Z,3.20
2022-09-22T23:09:42.281Z,3.13
2022-09-22T23:12:09.415Z,5.00
2022-09-22T23:14:36.630Z,2.63
2022-09-22T23:17:03.717Z,3.17
2022-09-22T23:19:30.818Z,9.90
2022-09-22T23:21:59.237Z,4.80
2022-09-22T23:24:26.366Z,9.23
2022-09-22T23:26:53.446Z,3.87
2022-09-22T23:29:20.551Z,5.70
2022-09-22T23:31:47.675Z,5.63
2022-09-22T23:34:14.914Z,8.00
2022-09-22T23:36:42.012Z,3.93
2022-09-22T23:39:12.681Z,4.13
2022-09-22T23:41:39.818Z,4.40
2022-09-22T23:44:07.218Z,4.97
2022-09-22T23:46:34.742Z,7.20
2022-09-22T23:49:01.836Z,4.67
2022-09-22T23:51:29.163Z,4.70
2022-09-22T23:53:56.606Z,4.40
2022-09-22T23:56:25.372Z,4.50
2022-09-22T23:58:52.503Z,2.50
